sensor_id;sensor_type;location;lat;lon;timestamp;P1;durP1;ratioP1;P2;durP2;ratioP2
75941;SDS011;64622;46.220;19.878;2022-12-18T00:01:17;62.60;;;22.27;;
75941;SDS011;64622;46.220;19.878;2022-12-18T00:03:52;62.47;;;22.90;;
75941;SDS011;64622;46.220;19.878;2022-12-18T00:06:19;59.72;;;19.65;;
75941;SDS011;64622;46.220;19.878;2022-12-18T00:08:47;58.45;;;17.87;;
75941;SDS011;64622;46.220;19.878;2022-12-18T00:11:15;49.63;;;18.40;;
75941;SDS011;64622;46.220;19.878;2022-12-18T00:13:44;63.17;;;22.08;;
75941;SDS011;64622;46.220;19.878;2022-12-18T00:16:13;60.55;;;20.77;;
75941;SDS011;64622;46.220;19.878;2022-12-18T00:18:41;57.83;;;20.40;;
75941;SDS011;64622;46.220;19.878;2022-12-18T00:21:09;63.85;;;21.12;;
75941;SDS011;64622;46.220;19.878;2022-12-18T00:23:37;54.30;;;20.20;;
75941;SDS011;64622;46.220;19.878;2022-12-18T00:26:06;58.00;;;20.70;;
75941;SDS011;64622;46.220;19.878;2022-12-18T00:28:35;48.17;;;17.15;;
75941;SDS011;64622;46.220;19.878;2022-12-18T00:31:06;58.38;;;20.75;;
75941;SDS011;64622;46.220;19.878;2022-12-18T00:33:35;62.15;;;21.80;;
75941;SDS011;64622;46.220;19.878;2022-12-18T00:38:28;61.25;;;22.05;;
75941;SDS011;64622;46.220;19.878;2022-12-18T00:40:55;64.78;;;22.10;;
75941;SDS011;64622;46.220;19.878;2022-12-18T00:43:22;55.83;;;17.87;;
75941;SDS011;64622;46.220;19.878;2022-12-18T00:45:48;59.67;;;21.20;;
75941;SDS011;64622;46.220;19.878;2022-12-18T00:48:15;66.93;;;22.48;;
75941;SDS011;64622;46.220;19.878;2022-12-18T00:50:41;54.42;;;19.75;;
75941;SDS011;64622;46.220;19.878;2022-12-18T00:53:08;66.40;;;22.00;;
75941;SDS011;64622;46.220;19.878;2022-12-18T00:55:36;60.15;;;20.08;;
75941;SDS011;64622;46.220;19.878;2022-12-18T00:58:03;61.50;;;19.50;;
75941;SDS011;64622;46.220;19.878;2022-12-18T01:00:30;62.60;;;21.87;;
75941;SDS011;64622;46.220;19.878;2022-12-18T01:02:57;70.85;;;22.62;;
75941;SDS011;64622;46.220;19.878;2022-12-18T01:05:23;74.35;;;21.58;;
75941;SDS011;64622;46.220;19.878;2022-12-18T01:07:51;73.82;;;22.15;;
75941;SDS011;64622;46.220;19.878;2022-12-18T01:10:19;58.33;;;18.75;;
75941;SDS011;64622;46.220;19.878;2022-12-18T01:12:45;57.60;;;19.98;;
75941;SDS011;64622;46.220;19.878;2022-12-18T01:15:12;48.00;;;16.30;;
75941;SDS011;64622;46.220;19.878;2022-12-18T01:17:41;64.40;;;21.95;;
75941;SDS011;64622;46.220;19.878;2022-12-18T01:20:10;68.32;;;22.27;;
75941;SDS011;64622;46.220;19.878;2022-12-18T01:22:38;66.35;;;22.45;;
75941;SDS011;64622;46.220;19.878;2022-12-18T01:25:07;66.80;;;23.23;;
75941;SDS011;64622;46.220;19.878;2022-12-18T01:27:34;50.60;;;19.05;;
75941;SDS011;64622;46.220;19.878;2022-12-18T01:30:03;60.70;;;20.75;;
75941;SDS011;64622;46.220;19.878;2022-12-18T01:32:31;62.35;;;20.85;;
75941;SDS011;64622;46.220;19.878;2022-12-18T01:34:58;62.35;;;20.58;;
75941;SDS011;64622;46.220;19.878;2022-12-18T01:37:26;63.58;;;21.33;;
75941;SDS011;64622;46.220;19.878;2022-12-18T01:39:53;64.43;;;21.08;;
75941;SDS011;64622;46.220;19.878;2022-12-18T01:42:23;61.30;;;21.40;;
75941;SDS011;64622;46.220;19.878;2022-12-18T01:47:43;55.20;;;20.70;;
75941;SDS011;64622;46.220;19.878;2022-12-18T01:52:41;52.67;;;19.42;;
75941;SDS011;64622;46.220;19.878;2022-12-18T01:55:10;61.83;;;22.08;;
75941;SDS011;64622;46.220;19.878;2022-12-18T01:57:38;62.55;;;21.80;;
75941;SDS011;64622;46.220;19.878;2022-12-18T02:00:11;57.53;;;19.65;;
75941;SDS011;64622;46.220;19.878;2022-12-18T02:02:44;57.55;;;19.90;;
75941;SDS011;64622;46.220;19.878;2022-12-18T02:05:12;54.15;;;19.25;;
75941;SDS011;64622;46.220;19.878;2022-12-18T02:08:20;43.50;;;16.08;;
75941;SDS011;64622;46.220;19.878;2022-12-18T02:11:10;52.33;;;19.48;;
75941;SDS011;64622;46.220;19.878;2022-12-18T02:13:46;49.38;;;18.73;;
75941;SDS011;64622;46.220;19.878;2022-12-18T02:18:58;57.13;;;20.12;;
75941;SDS011;64622;46.220;19.878;2022-12-18T02:21:34;53.83;;;19.75;;
75941;SDS011;64622;46.220;19.878;2022-12-18T02:24:16;49.42;;;18.48;;
75941;SDS011;64622;46.220;19.878;2022-12-18T02:26:59;54.13;;;19.23;;
75941;SDS011;64622;46.220;19.878;2022-12-18T02:29:33;52.15;;;18.87;;
75941;SDS011;64622;46.220;19.878;2022-12-18T02:32:06;52.78;;;18.77;;
75941;SDS011;64622;46.220;19.878;2022-12-18T02:34:39;56.03;;;19.85;;
75941;SDS011;64622;46.220;19.878;2022-12-18T02:37:09;54.05;;;18.52;;
75941;SDS011;64622;46.220;19.878;2022-12-18T02:39:43;53.63;;;18.58;;
75941;SDS011;64622;46.220;19.878;2022-12-18T02:42:13;47.67;;;17.98;;
75941;SDS011;64622;46.220;19.878;2022-12-18T02:44:44;47.95;;;17.77;;
75941;SDS011;64622;46.220;19.878;2022-12-18T02:47:13;55.15;;;19.77;;
75941;SDS011;64622;46.220;19.878;2022-12-18T02:58:04;52.03;;;18.35;;
75941;SDS011;64622;46.220;19.878;2022-12-18T03:00:50;43.20;;;15.45;;
75941;SDS011;64622;46.220;19.878;2022-12-18T03:03:32;51.55;;;20.08;;
75941;SDS011;64622;46.220;19.878;2022-12-18T03:06:40;52.80;;;19.77;;
75941;SDS011;64622;46.220;19.878;2022-12-18T03:09:19;51.28;;;18.50;;
75941;SDS011;64622;46.220;19.878;2022-12-18T03:11:53;50.60;;;18.98;;
75941;SDS011;64622;46.220;19.878;2022-12-18T03:14:41;50.45;;;16.83;;
75941;SDS011;64622;46.220;19.878;2022-12-18T03:17:10;53.25;;;19.37;;
75941;SDS011;64622;46.220;19.878;2022-12-18T03:19:40;48.42;;;17.27;;
75941;SDS011;64622;46.220;19.878;2022-12-18T03:22:10;47.47;;;18.50;;
75941;SDS011;64622;46.220;19.878;2022-12-18T03:24:38;52.65;;;19.05;;
75941;SDS011;64622;46.220;19.878;2022-12-18T03:27:06;54.33;;;20.40;;
75941;SDS011;64622;46.220;19.878;2022-12-18T03:29:40;50.80;;;19.08;;
75941;SDS011;64622;46.220;19.878;2022-12-18T03:32:14;51.22;;;19.77;;
75941;SDS011;64622;46.220;19.878;2022-12-18T03:34:48;52.60;;;19.77;;
75941;SDS011;64622;46.220;19.878;2022-12-18T03:37:18;55.70;;;18.25;;
75941;SDS011;64622;46.220;19.878;2022-12-18T03:39:44;54.75;;;18.85;;
75941;SDS011;64622;46.220;19.878;2022-12-18T03:45:21;55.22;;;18.17;;
75941;SDS011;64622;46.220;19.878;2022-12-18T03:47:58;48.83;;;19.27;;
75941;SDS011;64622;46.220;19.878;2022-12-18T03:53:00;52.08;;;18.62;;
75941;SDS011;64622;46.220;19.878;2022-12-18T03:55:35;56.40;;;19.70;;
75941;SDS011;64622;46.220;19.878;2022-12-18T03:58:03;51.28;;;19.12;;
75941;SDS011;64622;46.220;19.878;2022-12-18T04:00:38;54.25;;;19.12;;
75941;SDS011;64622;46.220;19.878;2022-12-18T04:03:06;53.63;;;18.70;;
75941;SDS011;64622;46.220;19.878;2022-12-18T04:05:35;56.65;;;20.62;;
75941;SDS011;64622;46.220;19.878;2022-12-18T04:08:03;59.65;;;20.95;;
75941;SDS011;64622;46.220;19.878;2022-12-18T04:10:33;48.40;;;18.35;;
75941;SDS011;64622;46.220;19.878;2022-12-18T04:13:00;53.67;;;20.80;;
75941;SDS011;64622;46.220;19.878;2022-12-18T04:15:27;57.50;;;21.55;;
75941;SDS011;64622;46.220;19.878;2022-12-18T04:17:55;53.95;;;19.95;;
75941;SDS011;64622;46.220;19.878;2022-12-18T04:20:22;55.92;;;20.73;;
75941;SDS011;64622;46.220;19.878;2022-12-18T04:22:48;52.22;;;19.10;;
75941;SDS011;64622;46.220;19.878;2022-12-18T04:25:16;54.80;;;18.62;;
75941;SDS011;64622;46.220;19.878;2022-12-18T04:27:44;51.25;;;20.10;;
75941;SDS011;64622;46.220;19.878;2022-12-18T04:30:11;59.13;;;21.48;;
75941;SDS011;64622;46.220;19.878;2022-12-18T04:32:39;61.97;;;20.88;;
75941;SDS011;64622;46.220;19.878;2022-12-18T04:35:05;57.47;;;21.08;;
75941;SDS011;64622;46.220;19.878;2022-12-18T04:37:36;59.30;;;20.95;;
75941;SDS011;64622;46.220;19.878;2022-12-18T04:40:04;64.93;;;21.50;;
75941;SDS011;64622;46.220;19.878;2022-12-18T04:42:32;58.22;;;20.15;;
75941;SDS011;64622;46.220;19.878;2022-12-18T04:44:58;47.95;;;17.85;;
75941;SDS011;64622;46.220;19.878;2022-12-18T04:47:25;63.10;;;21.55;;
75941;SDS011;64622;46.220;19.878;2022-12-18T04:49:51;54.13;;;21.12;;
75941;SDS011;64622;46.220;19.878;2022-12-18T04:52:17;58.80;;;21.27;;
75941;SDS011;64622;46.220;19.878;2022-12-18T04:54:44;58.87;;;20.20;;
75941;SDS011;64622;46.220;19.878;2022-12-18T04:57:10;58.92;;;19.83;;
75941;SDS011;64622;46.220;19.878;2022-12-18T04:59:37;56.28;;;19.65;;
75941;SDS011;64622;46.220;19.878;2022-12-18T05:02:04;50.83;;;18.70;;
75941;SDS011;64622;46.220;19.878;2022-12-18T05:04:30;57.83;;;20.02;;
75941;SDS011;64622;46.220;19.878;2022-12-18T05:06:58;58.38;;;20.30;;
75941;SDS011;64622;46.220;19.878;2022-12-18T05:09:24;56.17;;;19.87;;
75941;SDS011;64622;46.220;19.878;2022-12-18T05:11:51;57.10;;;20.95;;
75941;SDS011;64622;46.220;19.878;2022-12-18T05:14:18;61.35;;;22.75;;
75941;SDS011;64622;46.220;19.878;2022-12-18T05:16:44;63.25;;;21.27;;
75941;SDS011;64622;46.220;19.878;2022-12-18T05:19:11;47.83;;;17.00;;
75941;SDS011;64622;46.220;19.878;2022-12-18T05:21:37;63.67;;;23.65;;
75941;SDS011;64622;46.220;19.878;2022-12-18T05:24:04;65.47;;;23.75;;
75941;SDS011;64622;46.220;19.878;2022-12-18T05:26:31;66.25;;;25.27;;
75941;SDS011;64622;46.220;19.878;2022-12-18T05:28:58;66.05;;;23.25;;
75941;SDS011;64622;46.220;19.878;2022-12-18T05:31:24;72.30;;;24.10;;
75941;SDS011;64622;46.220;19.878;2022-12-18T05:33:51;67.60;;;23.12;;
75941;SDS011;64622;46.220;19.878;2022-12-18T05:36:17;55.30;;;18.92;;
75941;SDS011;64622;46.220;19.878;2022-12-18T05:38:44;72.53;;;23.38;;
75941;SDS011;64622;46.220;19.878;2022-12-18T05:41:11;82.62;;;29.23;;
75941;SDS011;64622;46.220;19.878;2022-12-18T05:43:38;74.72;;;25.37;;
75941;SDS011;64622;46.220;19.878;2022-12-18T05:46:07;76.80;;;24.23;;
75941;SDS011;64622;46.220;19.878;2022-12-18T05:48:35;72.90;;;24.05;;
75941;SDS011;64622;46.220;19.878;2022-12-18T05:51:05;77.25;;;24.15;;
75941;SDS011;64622;46.220;19.878;2022-12-18T05:53:34;78.70;;;25.77;;
75941;SDS011;64622;46.220;19.878;2022-12-18T05:56:05;78.28;;;23.20;;
75941;SDS011;64622;46.220;19.878;2022-12-18T05:58:33;87.03;;;26.67;;
75941;SDS011;64622;46.220;19.878;2022-12-18T06:01:07;79.05;;;24.63;;
75941;SDS011;64622;46.220;19.878;2022-12-18T06:03:39;77.68;;;24.90;;
75941;SDS011;64622;46.220;19.878;2022-12-18T06:06:20;90.82;;;26.85;;
75941;SDS011;64622;46.220;19.878;2022-12-18T06:08:51;94.10;;;28.12;;
75941;SDS011;64622;46.220;19.878;2022-12-18T06:11:19;98.53;;;30.67;;
75941;SDS011;64622;46.220;19.878;2022-12-18T06:13:54;126.30;;;39.90;;
75941;SDS011;64622;46.220;19.878;2022-12-18T06:16:22;90.05;;;23.60;;
75941;SDS011;64622;46.220;19.878;2022-12-18T06:18:48;88.25;;;25.10;;
75941;SDS011;64622;46.220;19.878;2022-12-18T06:21:15;93.60;;;24.48;;
75941;SDS011;64622;46.220;19.878;2022-12-18T06:23:42;99.75;;;26.10;;
75941;SDS011;64622;46.220;19.878;2022-12-18T06:26:09;98.22;;;24.58;;
75941;SDS011;64622;46.220;19.878;2022-12-18T06:28:38;101.12;;;27.05;;
75941;SDS011;64622;46.220;19.878;2022-12-18T06:31:04;120.80;;;34.15;;
75941;SDS011;64622;46.220;19.878;2022-12-18T06:33:32;97.20;;;25.92;;
75941;SDS011;64622;46.220;19.878;2022-12-18T06:36:00;100.15;;;28.40;;
75941;SDS011;64622;46.220;19.878;2022-12-18T06:38:28;99.15;;;26.92;;
75941;SDS011;64622;46.220;19.878;2022-12-18T06:40:55;97.90;;;25.27;;
75941;SDS011;64622;46.220;19.878;2022-12-18T06:43:23;100.40;;;25.62;;
75941;SDS011;64622;46.220;19.878;2022-12-18T06:45:49;118.28;;;27.13;;
75941;SDS011;64622;46.220;19.878;2022-12-18T06:48:21;134.77;;;26.98;;
75941;SDS011;64622;46.220;19.878;2022-12-18T06:50:48;116.12;;;26.17;;
75941;SDS011;64622;46.220;19.878;2022-12-18T06:53:15;131.12;;;26.92;;
75941;SDS011;64622;46.220;19.878;2022-12-18T06:55:41;115.88;;;26.02;;
75941;SDS011;64622;46.220;19.878;2022-12-18T06:58:08;168.73;;;45.85;;
75941;SDS011;64622;46.220;19.878;2022-12-18T07:00:35;132.07;;;35.72;;
75941;SDS011;64622;46.220;19.878;2022-12-18T07:03:01;116.45;;;28.33;;
75941;SDS011;64622;46.220;19.878;2022-12-18T07:05:28;127.95;;;29.85;;
75941;SDS011;64622;46.220;19.878;2022-12-18T07:07:55;129.10;;;30.80;;
75941;SDS011;64622;46.220;19.878;2022-12-18T07:10:22;122.95;;;31.35;;
75941;SDS011;64622;46.220;19.878;2022-12-18T07:12:48;119.75;;;29.60;;
75941;SDS011;64622;46.220;19.878;2022-12-18T07:15:15;128.98;;;31.73;;
75941;SDS011;64622;46.220;19.878;2022-12-18T07:17:41;125.57;;;33.47;;
75941;SDS011;64622;46.220;19.878;2022-12-18T07:20:09;163.52;;;41.55;;
75941;SDS011;64622;46.220;19.878;2022-12-18T07:22:36;125.82;;;34.65;;
75941;SDS011;64622;46.220;19.878;2022-12-18T07:25:02;128.60;;;36.80;;
75941;SDS011;64622;46.220;19.878;2022-12-18T07:27:29;131.27;;;36.83;;
75941;SDS011;64622;46.220;19.878;2022-12-18T07:29:56;128.85;;;38.17;;
75941;SDS011;64622;46.220;19.878;2022-12-18T07:32:22;116.07;;;31.35;;
75941;SDS011;64622;46.220;19.878;2022-12-18T07:34:49;116.15;;;34.95;;
75941;SDS011;64622;46.220;19.878;2022-12-18T07:37:15;129.15;;;39.63;;
75941;SDS011;64622;46.220;19.878;2022-12-18T07:39:41;135.82;;;45.83;;
75941;SDS011;64622;46.220;19.878;2022-12-18T07:42:09;112.97;;;43.60;;
75941;SDS011;64622;46.220;19.878;2022-12-18T07:44:54;110.43;;;43.40;;
75941;SDS011;64622;46.220;19.878;2022-12-18T07:47:20;100.07;;;39.88;;
75941;SDS011;64622;46.220;19.878;2022-12-18T07:49:47;69.43;;;26.90;;
75941;SDS011;64622;46.220;19.878;2022-12-18T07:52:14;81.82;;;29.12;;
75941;SDS011;64622;46.220;19.878;2022-12-18T07:54:41;70.62;;;26.33;;
75941;SDS011;64622;46.220;19.878;2022-12-18T07:57:07;101.97;;;41.47;;
75941;SDS011;64622;46.220;19.878;2022-12-18T07:59:35;76.90;;;29.70;;
75941;SDS011;64622;46.220;19.878;2022-12-18T08:02:02;72.03;;;27.00;;
75941;SDS011;64622;46.220;19.878;2022-12-18T08:04:29;74.20;;;30.30;;
75941;SDS011;64622;46.220;19.878;2022-12-18T08:06:56;88.87;;;41.22;;
75941;SDS011;64622;46.220;19.878;2022-12-18T08:09:22;68.70;;;29.20;;
75941;SDS011;64622;46.220;19.878;2022-12-18T08:11:49;69.85;;;29.83;;
75941;SDS011;64622;46.220;19.878;2022-12-18T08:14:16;70.72;;;29.65;;
75941;SDS011;64622;46.220;19.878;2022-12-18T08:16:43;74.50;;;34.55;;
75941;SDS011;64622;46.220;19.878;2022-12-18T08:19:09;63.95;;;26.58;;
75941;SDS011;64622;46.220;19.878;2022-12-18T08:21:36;61.47;;;25.67;;
75941;SDS011;64622;46.220;19.878;2022-12-18T08:24:03;66.43;;;26.95;;
75941;SDS011;64622;46.220;19.878;2022-12-18T08:26:30;74.87;;;31.50;;
75941;SDS011;64622;46.220;19.878;2022-12-18T08:28:58;58.83;;;23.77;;
75941;SDS011;64622;46.220;19.878;2022-12-18T08:31:26;79.28;;;28.90;;
75941;SDS011;64622;46.220;19.878;2022-12-18T08:33:54;64.32;;;25.45;;
75941;SDS011;64622;46.220;19.878;2022-12-18T08:36:22;63.10;;;25.52;;
75941;SDS011;64622;46.220;19.878;2022-12-18T08:38:50;56.15;;;23.58;;
75941;SDS011;64622;46.220;19.878;2022-12-18T08:41:17;59.13;;;24.90;;
75941;SDS011;64622;46.220;19.878;2022-12-18T08:43:44;68.22;;;28.65;;
75941;SDS011;64622;46.220;19.878;2022-12-18T08:46:37;65.53;;;27.02;;
75941;SDS011;64622;46.220;19.878;2022-12-18T08:49:06;56.70;;;24.65;;
75941;SDS011;64622;46.220;19.878;2022-12-18T08:51:34;67.15;;;25.67;;
75941;SDS011;64622;46.220;19.878;2022-12-18T08:54:02;58.75;;;24.95;;
75941;SDS011;64622;46.220;19.878;2022-12-18T08:56:29;60.63;;;25.65;;
75941;SDS011;64622;46.220;19.878;2022-12-18T08:58:57;66.28;;;27.87;;
75941;SDS011;64622;46.220;19.878;2022-12-18T09:01:24;83.87;;;41.50;;
75941;SDS011;64622;46.220;19.878;2022-12-18T09:03:50;70.60;;;30.97;;
75941;SDS011;64622;46.220;19.878;2022-12-18T09:06:18;60.85;;;26.25;;
75941;SDS011;64622;46.220;19.878;2022-12-18T09:08:46;60.80;;;25.65;;
75941;SDS011;64622;46.220;19.878;2022-12-18T09:11:23;65.12;;;29.00;;
75941;SDS011;64622;46.220;19.878;2022-12-18T09:13:52;63.75;;;26.45;;
75941;SDS011;64622;46.220;19.878;2022-12-18T09:16:20;64.43;;;26.83;;
75941;SDS011;64622;46.220;19.878;2022-12-18T09:18:47;61.17;;;25.15;;
75941;SDS011;64622;46.220;19.878;2022-12-18T09:21:16;61.28;;;25.95;;
75941;SDS011;64622;46.220;19.878;2022-12-18T09:23:49;58.38;;;22.20;;
75941;SDS011;64622;46.220;19.878;2022-12-18T09:26:17;66.22;;;27.73;;
75941;SDS011;64622;46.220;19.878;2022-12-18T09:28:43;61.37;;;26.90;;
75941;SDS011;64622;46.220;19.878;2022-12-18T09:31:11;62.05;;;25.90;;
75941;SDS011;64622;46.220;19.878;2022-12-18T09:33:42;56.58;;;23.17;;
75941;SDS011;64622;46.220;19.878;2022-12-18T09:36:09;57.33;;;23.73;;
75941;SDS011;64622;46.220;19.878;2022-12-18T09:38:37;50.67;;;22.55;;
75941;SDS011;64622;46.220;19.878;2022-12-18T09:44:15;52.50;;;22.70;;
75941;SDS011;64622;46.220;19.878;2022-12-18T09:47:09;62.22;;;23.98;;
75941;SDS011;64622;46.220;19.878;2022-12-18T09:49:42;59.90;;;26.87;;
75941;SDS011;64622;46.220;19.878;2022-12-18T09:52:12;51.55;;;22.90;;
75941;SDS011;64622;46.220;19.878;2022-12-18T09:54:44;116.30;;;45.20;;
75941;SDS011;64622;46.220;19.878;2022-12-18T09:57:17;91.10;;;45.72;;
75941;SDS011;64622;46.220;19.878;2022-12-18T09:59:49;109.18;;;43.15;;
75941;SDS011;64622;46.220;19.878;2022-12-18T10:02:24;60.28;;;25.55;;
75941;SDS011;64622;46.220;19.878;2022-12-18T10:04:55;48.67;;;20.30;;
75941;SDS011;64622;46.220;19.878;2022-12-18T10:10:23;62.05;;;26.15;;
75941;SDS011;64622;46.220;19.878;2022-12-18T10:13:01;50.33;;;20.42;;
75941;SDS011;64622;46.220;19.878;2022-12-18T10:15:40;45.03;;;18.85;;
75941;SDS011;64622;46.220;19.878;2022-12-18T10:21:09;67.93;;;29.93;;
75941;SDS011;64622;46.220;19.878;2022-12-18T10:23:43;44.60;;;18.33;;
75941;SDS011;64622;46.220;19.878;2022-12-18T10:26:32;99.65;;;42.20;;
75941;SDS011;64622;46.220;19.878;2022-12-18T10:28:59;57.40;;;26.83;;
75941;SDS011;64622;46.220;19.878;2022-12-18T10:31:26;50.70;;;23.17;;
75941;SDS011;64622;46.220;19.878;2022-12-18T10:33:53;43.43;;;20.40;;
75941;SDS011;64622;46.220;19.878;2022-12-18T10:36:20;49.17;;;20.77;;
75941;SDS011;64622;46.220;19.878;2022-12-18T10:38:47;49.75;;;19.55;;
75941;SDS011;64622;46.220;19.878;2022-12-18T10:43:43;44.38;;;19.05;;
75941;SDS011;64622;46.220;19.878;2022-12-18T10:53:59;52.72;;;25.95;;
75941;SDS011;64622;46.220;19.878;2022-12-18T10:56:28;37.95;;;15.00;;
75941;SDS011;64622;46.220;19.878;2022-12-18T10:58:58;36.77;;;14.27;;
75941;SDS011;64622;46.220;19.878;2022-12-18T11:01:27;60.78;;;26.90;;
75941;SDS011;64622;46.220;19.878;2022-12-18T11:06:22;28.05;;;11.95;;
75941;SDS011;64622;46.220;19.878;2022-12-18T11:08:58;48.67;;;19.80;;
75941;SDS011;64622;46.220;19.878;2022-12-18T11:11:32;42.67;;;16.73;;
75941;SDS011;64622;46.220;19.878;2022-12-18T11:14:01;40.40;;;16.62;;
75941;SDS011;64622;46.220;19.878;2022-12-18T11:16:30;39.70;;;16.70;;
75941;SDS011;64622;46.220;19.878;2022-12-18T11:22:16;40.80;;;16.83;;
75941;SDS011;64622;46.220;19.878;2022-12-18T11:24:53;43.93;;;18.80;;
75941;SDS011;64622;46.220;19.878;2022-12-18T11:27:33;47.72;;;20.50;;
75941;SDS011;64622;46.220;19.878;2022-12-18T11:30:10;41.13;;;17.05;;
75941;SDS011;64622;46.220;19.878;2022-12-18T11:35:40;43.72;;;18.45;;
75941;SDS011;64622;46.220;19.878;2022-12-18T11:38:20;38.40;;;17.00;;
75941;SDS011;64622;46.220;19.878;2022-12-18T11:41:15;22.92;;;9.13;;
75941;SDS011;64622;46.220;19.878;2022-12-18T11:43:51;32.83;;;13.80;;
75941;SDS011;64622;46.220;19.878;2022-12-18T11:46:36;42.60;;;17.83;;
75941;SDS011;64622;46.220;19.878;2022-12-18T11:49:13;41.53;;;16.73;;
75941;SDS011;64622;46.220;19.878;2022-12-18T11:54:14;68.68;;;23.67;;
75941;SDS011;64622;46.220;19.878;2022-12-18T11:56:46;54.75;;;23.05;;
75941;SDS011;64622;46.220;19.878;2022-12-18T11:59:24;47.58;;;19.45;;
75941;SDS011;64622;46.220;19.878;2022-12-18T12:02:28;42.53;;;18.42;;
75941;SDS011;64622;46.220;19.878;2022-12-18T12:05:16;42.70;;;17.77;;
75941;SDS011;64622;46.220;19.878;2022-12-18T12:08:10;40.40;;;17.35;;
75941;SDS011;64622;46.220;19.878;2022-12-18T12:30:05;40.33;;;15.60;;
75941;SDS011;64622;46.220;19.878;2022-12-18T12:40:13;38.15;;;15.95;;
75941;SDS011;64622;46.220;19.878;2022-12-18T12:42:57;42.15;;;16.58;;
75941;SDS011;64622;46.220;19.878;2022-12-18T12:50:49;23.48;;;9.45;;
75941;SDS011;64622;46.220;19.878;2022-12-18T12:53:20;37.55;;;16.37;;
75941;SDS011;64622;46.220;19.878;2022-12-18T12:55:57;39.70;;;15.10;;
75941;SDS011;64622;46.220;19.878;2022-12-18T13:01:16;28.52;;;12.65;;
75941;SDS011;64622;46.220;19.878;2022-12-18T13:07:06;39.20;;;14.77;;
75941;SDS011;64622;46.220;19.878;2022-12-18T13:12:52;43.13;;;19.10;;
75941;SDS011;64622;46.220;19.878;2022-12-18T13:15:23;49.25;;;22.70;;
75941;SDS011;64622;46.220;19.878;2022-12-18T13:18:03;38.25;;;16.17;;
75941;SDS011;64622;46.220;19.878;2022-12-18T13:20:41;37.50;;;16.30;;
75941;SDS011;64622;46.220;19.878;2022-12-18T13:30:59;50.28;;;21.45;;
75941;SDS011;64622;46.220;19.878;2022-12-18T13:36:12;42.95;;;19.87;;
75941;SDS011;64622;46.220;19.878;2022-12-18T13:38:43;38.13;;;15.47;;
75941;SDS011;64622;46.220;19.878;2022-12-18T13:43:52;37.40;;;15.68;;
75941;SDS011;64622;46.220;19.878;2022-12-18T13:46:30;39.03;;;15.93;;
75941;SDS011;64622;46.220;19.878;2022-12-18T13:51:40;79.70;;;41.77;;
75941;SDS011;64622;46.220;19.878;2022-12-18T13:56:47;52.65;;;29.98;;
75941;SDS011;64622;46.220;19.878;2022-12-18T13:59:16;74.97;;;38.30;;
75941;SDS011;64622;46.220;19.878;2022-12-18T14:01:51;48.92;;;24.80;;
75941;SDS011;64622;46.220;19.878;2022-12-18T14:04:27;50.03;;;22.27;;
75941;SDS011;64622;46.220;19.878;2022-12-18T14:07:01;48.45;;;20.35;;
75941;SDS011;64622;46.220;19.878;2022-12-18T14:09:33;47.72;;;20.33;;
75941;SDS011;64622;46.220;19.878;2022-12-18T14:12:02;45.88;;;20.80;;
75941;SDS011;64622;46.220;19.878;2022-12-18T14:14:48;57.58;;;24.77;;
75941;SDS011;64622;46.220;19.878;2022-12-18T14:17:18;47.40;;;21.03;;
75941;SDS011;64622;46.220;19.878;2022-12-18T14:19:46;74.28;;;26.33;;
75941;SDS011;64622;46.220;19.878;2022-12-18T14:22:18;66.40;;;28.42;;
75941;SDS011;64622;46.220;19.878;2022-12-18T14:24:51;52.22;;;23.90;;
75941;SDS011;64622;46.220;19.878;2022-12-18T14:27:53;197.00;;;100.45;;
75941;SDS011;64622;46.220;19.878;2022-12-18T14:30:40;56.80;;;25.25;;
75941;SDS011;64622;46.220;19.878;2022-12-18T14:35:40;67.28;;;26.73;;
75941;SDS011;64622;46.220;19.878;2022-12-18T14:38:38;87.18;;;30.00;;
75941;SDS011;64622;46.220;19.878;2022-12-18T14:43:38;76.03;;;29.20;;
75941;SDS011;64622;46.220;19.878;2022-12-18T14:49:00;41.33;;;15.43;;
75941;SDS011;64622;46.220;19.878;2022-12-18T14:52:03;29.98;;;11.07;;
75941;SDS011;64622;46.220;19.878;2022-12-18T14:54:33;46.33;;;17.67;;
75941;SDS011;64622;46.220;19.878;2022-12-18T14:57:02;39.38;;;17.37;;
75941;SDS011;64622;46.220;19.878;2022-12-18T14:59:31;46.50;;;16.52;;
75941;SDS011;64622;46.220;19.878;2022-12-18T15:04:33;65.07;;;27.83;;
75941;SDS011;64622;46.220;19.878;2022-12-18T15:07:04;56.13;;;21.02;;
75941;SDS011;64622;46.220;19.878;2022-12-18T15:09:37;65.70;;;24.45;;
75941;SDS011;64622;46.220;19.878;2022-12-18T15:12:15;70.85;;;26.77;;
75941;SDS011;64622;46.220;19.878;2022-12-18T15:15:02;97.50;;;33.10;;
75941;SDS011;64622;46.220;19.878;2022-12-18T15:17:30;90.55;;;30.98;;
75941;SDS011;64622;46.220;19.878;2022-12-18T15:20:01;94.85;;;35.30;;
75941;SDS011;64622;46.220;19.878;2022-12-18T15:22:35;120.50;;;45.33;;
75941;SDS011;64622;46.220;19.878;2022-12-18T15:25:03;75.15;;;31.87;;
75941;SDS011;64622;46.220;19.878;2022-12-18T15:27:53;104.93;;;39.45;;
75941;SDS011;64622;46.220;19.878;2022-12-18T15:30:21;149.07;;;51.03;;
75941;SDS011;64622;46.220;19.878;2022-12-18T15:32:49;94.75;;;35.03;;
75941;SDS011;64622;46.220;19.878;2022-12-18T15:35:21;69.57;;;27.40;;
75941;SDS011;64622;46.220;19.878;2022-12-18T15:37:50;75.30;;;32.95;;
75941;SDS011;64622;46.220;19.878;2022-12-18T15:40:19;70.70;;;27.52;;
75941;SDS011;64622;46.220;19.878;2022-12-18T15:42:48;62.78;;;22.83;;
75941;SDS011;64622;46.220;19.878;2022-12-18T15:45:36;61.00;;;22.75;;
75941;SDS011;64622;46.220;19.878;2022-12-18T15:48:18;56.67;;;24.23;;
75941;SDS011;64622;46.220;19.878;2022-12-18T15:50:51;89.25;;;34.08;;
75941;SDS011;64622;46.220;19.878;2022-12-18T15:53:20;104.57;;;46.20;;
75941;SDS011;64622;46.220;19.878;2022-12-18T15:55:46;92.95;;;37.50;;
75941;SDS011;64622;46.220;19.878;2022-12-18T15:58:32;68.32;;;28.70;;
75941;SDS011;64622;46.220;19.878;2022-12-18T16:00:59;63.87;;;23.75;;
75941;SDS011;64622;46.220;19.878;2022-12-18T16:03:27;65.85;;;24.70;;
75941;SDS011;64622;46.220;19.878;2022-12-18T16:05:54;74.00;;;30.05;;
75941;SDS011;64622;46.220;19.878;2022-12-18T16:08:20;71.97;;;29.70;;
75941;SDS011;64622;46.220;19.878;2022-12-18T16:10:48;89.90;;;35.22;;
75941;SDS011;64622;46.220;19.878;2022-12-18T16:13:15;85.95;;;34.42;;
75941;SDS011;64622;46.220;19.878;2022-12-18T16:15:45;91.63;;;34.47;;
75941;SDS011;64622;46.220;19.878;2022-12-18T16:18:12;106.97;;;40.55;;
75941;SDS011;64622;46.220;19.878;2022-12-18T16:20:38;131.32;;;50.83;;
75941;SDS011;64622;46.220;19.878;2022-12-18T16:23:05;131.30;;;49.63;;
75941;SDS011;64622;46.220;19.878;2022-12-18T16:25:32;133.48;;;51.78;;
75941;SDS011;64622;46.220;19.878;2022-12-18T16:28:00;129.35;;;49.03;;
75941;SDS011;64622;46.220;19.878;2022-12-18T16:30:27;135.52;;;52.78;;
75941;SDS011;64622;46.220;19.878;2022-12-18T16:32:57;130.18;;;50.05;;